createdAt,value
2023-04-22T00:02:19.588Z,99463.72
2023-04-22T00:04:48.349Z,99465.44
2023-04-22T00:07:19.316Z,99455.81
2023-04-22T00:09:48.052Z,99456.66
2023-04-22T00:12:16.877Z,99452.28
2023-04-22T00:14:45.448Z,99452.28
2023-04-22T00:17:14.056Z,99450.50
2023-04-22T00:19:44.014Z,99446.19
2023-04-22T00:22:12.525Z,99452.28
2023-04-22T00:24:41.422Z,99450.50
2023-04-22T00:27:10.027Z,99448.81
2023-04-22T00:29:39.675Z,99444.47
2023-04-22T00:32:08.595Z,99449.69
2023-04-22T00:34:37.108Z,99445.38
2023-04-22T00:37:07.092Z,99443.59
2023-04-22T00:39:35.702Z,99438.34
2023-04-22T00:42:04.511Z,99434.81
2023-04-22T00:44:33.783Z,99432.22
2023-04-22T00:47:03.235Z,99430.44
2023-04-22T00:49:32.374Z,99427.81
2023-04-22T00:52:02.437Z,99434.78
2023-04-22T00:54:33.254Z,99425.19
2023-04-22T00:57:02.262Z,99432.22
2023-04-22T00:59:31.310Z,99436.56
2023-04-22T01:02:00.115Z,99426.16
2023-04-22T01:04:29.131Z,99429.63
2023-04-22T01:07:00.589Z,99428.78
2023-04-22T01:09:29.182Z,99431.38
2023-04-22T01:11:59.146Z,99429.69
2023-04-22T01:14:27.742Z,99427.06
2023-04-22T01:16:57.823Z,99434.09
2023-04-22T01:19:29.436Z,99429.72
2023-04-22T01:21:59.280Z,99428.91
2023-04-22T01:24:30.682Z,99429.78
2023-04-22T01:26:59.316Z,99425.47
2023-04-22T01:29:27.955Z,99426.38
2023-04-22T01:31:57.028Z,99435.16
2023-04-22T01:34:25.716Z,99433.41
2023-04-22T01:36:54.213Z,99433.44
2023-04-22T01:39:22.809Z,99435.25
2023-04-22T01:41:53.622Z,99436.13
2023-04-22T01:44:22.351Z,99431.81
2023-04-22T01:46:51.997Z,99431.84
2023-04-22T01:49:20.478Z,99433.59
2023-04-22T01:51:48.974Z,99429.28
2023-04-22T01:54:17.624Z,99431.91
2023-04-22T01:56:54.087Z,99424.09
2023-04-22T01:59:23.043Z,99431.09
2023-04-22T02:01:52.085Z,99431.97
2023-04-22T02:04:20.681Z,99429.41
2023-04-22T02:06:49.204Z,99432.06
2023-04-22T02:09:17.726Z,99439.03
2023-04-22T02:11:46.415Z,99441.69
2023-04-22T02:14:16.224Z,99436.50
2023-04-22T02:16:44.777Z,99434.81
2023-04-22T02:19:13.262Z,99437.44
2023-04-22T02:21:42.013Z,99428.75
2023-04-22T02:24:11.611Z,99416.56
2023-04-22T02:26:40.146Z,99426.25
2023-04-22T02:29:08.906Z,99424.53
2023-04-22T02:31:39.040Z,99421.94
2023-04-22T02:34:07.657Z,99419.38
2023-04-22T02:36:36.356Z,99421.97
2023-04-22T02:39:06.116Z,99420.25
2023-04-22T02:41:36.810Z,99422.03
2023-04-22T02:44:05.918Z,99409.81
2023-04-22T02:46:34.821Z,99408.94
2023-04-22T02:49:05.525Z,99409.84
2023-04-22T02:51:34.373Z,99404.63
2023-04-22T02:54:02.938Z,99403.78
2023-04-22T02:56:32.065Z,99406.44
2023-04-22T02:59:00.608Z,99402.97
2023-04-22T03:01:29.716Z,99399.50
2023-04-22T03:04:01.872Z,99402.13
2023-04-22T03:06:31.982Z,99401.25
2023-04-22T03:09:00.924Z,99393.41
2023-04-22T03:11:29.357Z,99387.28
2023-04-22T03:13:58.044Z,99383.81
2023-04-22T03:16:27.182Z,99382.03
2023-04-22T03:18:57.811Z,99379.41
2023-04-22T03:21:26.589Z,99382.03
2023-04-22T03:23:57.205Z,99377.63
2023-04-22T03:26:25.974Z,99381.13
2023-04-22T03:28:55.385Z,99378.47
2023-04-22T03:31:25.094Z,99382.81
2023-04-22T03:33:54.058Z,99377.56
2023-04-22T03:36:29.106Z,99373.19
2023-04-22T03:38:59.855Z,99371.44
2023-04-22T03:41:29.616Z,99369.66
2023-04-22T03:44:01.533Z,99359.16
2023-04-22T03:46:30.993Z,99357.41
2023-04-22T03:49:09.091Z,99361.75
2023-04-22T03:51:37.657Z,99353.03
2023-04-22T03:54:12.674Z,99352.13
2023-04-22T03:56:48.082Z,99359.00
2023-04-22T03:59:18.570Z,99347.69
2023-04-22T04:01:47.587Z,99351.16
2023-04-22T04:04:19.877Z,99358.13
2023-04-22T04:06:54.151Z,99352.03
2023-04-22T04:09:24.168Z,99340.75
2023-04-22T04:11:53.470Z,99353.91
2023-04-22T04:14:22.005Z,99353.91
2023-04-22T04:16:53.663Z,99353.94
2023-04-22T04:19:31.762Z,99343.47
2023-04-22T04:22:01.859Z,99338.28
2023-04-22T04:24:36.709Z,99327.84
2023-04-22T04:27:12.633Z,99327.84
2023-04-22T04:29:49.614Z,99320.91
2023-04-22T04:32:27.037Z,99322.69
2023-04-22T04:34:57.659Z,99328.84
2023-04-22T04:37:27.471Z,99326.25
2023-04-22T04:40:06.752Z,99326.25
2023-04-22T04:43:02.632Z,99328.03
2023-04-22T04:45:37.754Z,99329.78
2023-04-22T04:48:08.986Z,99330.66
2023-04-22T04:50:42.389Z,99329.81
2023-04-22T04:53:11.183Z,99330.69
2023-04-22T04:55:43.927Z,99329.81
2023-04-22T04:58:20.023Z,99328.09
2023-04-22T05:00:52.915Z,99325.50
2023-04-22T05:03:21.885Z,99322.91
2023-04-22T05:05:50.725Z,99317.66
2023-04-22T05:08:19.234Z,99320.31
2023-04-22T05:10:51.035Z,99311.63
2023-04-22T05:13:20.158Z,99315.16
2023-04-22T05:15:49.911Z,99308.22
2023-04-22T05:18:19.185Z,99302.16
2023-04-22T05:20:47.933Z,99312.66
2023-04-22T05:23:17.770Z,99305.69
2023-04-22T05:25:52.796Z,99304.84
2023-04-22T05:28:23.575Z,99307.53
2023-04-22T05:30:56.125Z,99308.47
2023-04-22T05:33:24.752Z,99319.88
2023-04-22T05:35:53.795Z,99314.69
2023-04-22T05:38:22.545Z,99314.72
2023-04-22T05:40:51.431Z,99326.13
2023-04-22T05:43:20.971Z,99325.31
2023-04-22T05:45:58.751Z,99320.13
2023-04-22T05:48:28.125Z,99314.06
2023-04-22T05:51:02.833Z,99319.34
2023-04-22T05:53:32.565Z,99323.75
2023-04-22T05:56:03.030Z,99323.81
2023-04-22T05:58:31.535Z,99319.50
2023-04-22T06:01:05.889Z,99320.44
2023-04-22T06:04:05.264Z,99315.25
2023-04-22T06:06:34.368Z,99319.66
2023-04-22T06:09:03.078Z,99327.59
2023-04-22T06:11:32.179Z,99329.34
2023-04-22T06:14:01.294Z,99325.03
2023-04-22T06:16:31.526Z,99324.22
2023-04-22T06:19:00.120Z,99316.38
2023-04-22T06:21:28.780Z,99314.66
2023-04-22T06:23:59.876Z,99320.81
2023-04-22T06:26:28.561Z,99316.47
2023-04-22T06:28:57.763Z,99317.34
2023-04-22T06:31:26.339Z,99314.72
2023-04-22T06:33:56.383Z,99313.88
2023-04-22T06:36:25.431Z,99317.44
2023-04-22T06:38:59.076Z,99310.47
2023-04-22T06:41:50.271Z,99307.00
2023-04-22T06:44:39.872Z,99310.53
2023-04-22T06:47:30.358Z,99315.81
2023-04-22T06:50:12.946Z,99318.47
2023-04-22T06:52:57.303Z,99308.88
2023-04-22T06:55:29.220Z,99315.94
2023-04-22T06:57:58.023Z,99316.84
2023-04-22T07:00:28.200Z,99309.91
2023-04-22T07:02:56.983Z,99308.22
2023-04-22T07:05:27.313Z,99308.28
2023-04-22T07:07:56.897Z,99307.44
2023-04-22T07:10:26.550Z,99305.75
2023-04-22T07:13:18.003Z,99301.38
2023-04-22T07:15:46.792Z,99298.78
2023-04-22T07:18:15.360Z,99305.84
2023-04-22T07:20:45.421Z,99305.88
2023-04-22T07:23:14.005Z,99297.16
2023-04-22T07:25:42.594Z,99295.44
2023-04-22T07:28:11.311Z,99286.72
2023-04-22T07:30:39.855Z,99302.53
2023-04-22T07:33:08.502Z,99299.06
2023-04-22T07:35:38.880Z,99300.84
2023-04-22T07:38:09.867Z,99286.81
2023-04-22T07:40:39.168Z,99285.94
2023-04-22T07:43:07.837Z,99283.31
2023-04-22T07:45:36.457Z,99281.56
2023-04-22T07:48:05.533Z,99280.72
2023-04-22T07:50:34.129Z,99285.97
2023-04-22T07:53:02.976Z,99289.47
2023-04-22T07:55:33.257Z,99282.44
2023-04-22T07:58:06.375Z,99276.31
2023-04-22T08:00:35.623Z,99271.03
2023-04-22T08:03:04.979Z,99261.38
2023-04-22T08:05:33.804Z,99253.47
2023-04-22T08:08:02.742Z,99256.97
2023-04-22T08:10:32.819Z,99256.94
2023-04-22T08:13:03.172Z,99255.19
2023-04-22T08:15:31.706Z,99265.72
2023-04-22T08:18:00.361Z,99257.78
2023-04-22T08:20:28.925Z,99259.50
2023-04-22T08:22:58.230Z,99251.53
2023-04-22T08:25:26.767Z,99241.88
2023-04-22T08:27:57.948Z,99249.72
2023-04-22T08:30:26.758Z,99252.31
2023-04-22T08:32:55.482Z,99248.78
2023-04-22T08:35:24.168Z,99243.44
2023-04-22T08:37:52.721Z,99240.75
2023-04-22T08:40:21.573Z,99235.41
2023-04-22T08:42:52.193Z,99228.34
2023-04-22T08:45:22.558Z,99235.31
2023-04-22T08:47:51.276Z,99244.03
2023-04-22T08:50:22.145Z,99245.78
2023-04-22T08:52:51.066Z,99243.06
2023-04-22T08:55:20.525Z,99225.47
2023-04-22T08:57:50.334Z,99232.44
2023-04-22T09:00:20.103Z,99228.91
2023-04-22T09:02:51.795Z,99237.66
2023-04-22T09:05:23.434Z,99222.66
2023-04-22T09:07:52.360Z,99221.75
2023-04-22T09:10:21.284Z,99218.16
2023-04-22T09:12:50.547Z,99218.97
2023-04-22T09:15:19.289Z,99214.53
2023-04-22T09:17:52.035Z,99213.53
2023-04-22T09:20:20.747Z,99212.63
2023-04-22T09:22:50.760Z,99211.66
2023-04-22T09:25:20.591Z,99218.69
2023-04-22T09:27:53.052Z,99214.22
2023-04-22T09:30:25.585Z,99216.81
2023-04-22T09:32:57.347Z,99212.34
2023-04-22T09:35:30.164Z,99200.81
2023-04-22T09:38:00.535Z,99208.63
2023-04-22T09:40:29.990Z,99224.38
2023-04-22T09:43:01.823Z,99204.03
2023-04-22T09:45:31.914Z,99200.38
2023-04-22T09:48:07.906Z,99204.69
2023-04-22T09:50:37.836Z,99206.28
2023-04-22T09:53:08.186Z,99211.47
2023-04-22T09:55:38.997Z,99215.75
2023-04-22T09:58:09.740Z,99210.31
2023-04-22T10:00:42.604Z,99204.03
2023-04-22T10:03:12.959Z,99202.13
2023-04-22T10:05:42.186Z,99201.16
2023-04-22T10:08:12.099Z,99190.44
2023-04-22T10:10:41.281Z,99189.44
2023-04-22T10:13:10.712Z,99185.72
2023-04-22T10:15:41.607Z,99189.97
2023-04-22T10:18:15.319Z,99187.19
2023-04-22T10:20:45.286Z,99185.25
2023-04-22T10:23:16.223Z,99174.50
2023-04-22T10:25:48.838Z,99177.84
2023-04-22T10:28:18.705Z,99184.78
2023-04-22T10:30:47.902Z,99192.56
2023-04-22T10:33:40.025Z,99194.13
2023-04-22T10:36:10.634Z,99195.75
2023-04-22T10:38:41.891Z,99196.50
2023-04-22T10:41:17.035Z,99186.63
2023-04-22T10:43:49.068Z,99192.63
2023-04-22T10:46:54.725Z,99188.09
2023-04-22T10:49:27.857Z,99192.28
2023-04-22T10:51:59.867Z,99193.13
2023-04-22T10:54:58.016Z,99188.59
2023-04-22T10:57:38.520Z,99197.31
2023-04-22T11:03:17.341Z,99197.69
2023-04-22T11:05:48.761Z,99202.81
2023-04-22T11:08:25.134Z,99200.03
2023-04-22T11:10:55.585Z,99198.03
2023-04-22T11:13:26.952Z,99196.91
2023-04-22T11:16:01.209Z,99189.53
2023-04-22T11:18:33.644Z,99203.47
2023-04-22T11:21:08.908Z,99202.31
2023-04-22T11:23:37.701Z,99209.09
2023-04-22T11:26:12.473Z,99210.66
2023-04-22T11:28:52.718Z,99202.56
2023-04-22T11:31:27.872Z,99198.78
2023-04-22T11:34:00.761Z,99197.69
2023-04-22T11:36:32.897Z,99207.34
2023-04-22T11:39:03.344Z,99204.63
2023-04-22T11:41:34.612Z,99203.72
2023-04-22T11:44:07.626Z,99199.38
2023-04-22T11:46:40.580Z,99195.88
2023-04-22T11:49:16.942Z,99194.94
2023-04-22T11:52:00.962Z,99193.00
2023-04-22T11:54:35.628Z,99191.13
2023-04-22T11:57:09.302Z,99189.16
2023-04-22T11:59:39.732Z,99192.41
2023-04-22T12:02:13.851Z,99185.19
2023-04-22T12:04:46.357Z,99186.91
2023-04-22T12:07:17.767Z,99199.50
2023-04-22T12:09:51.301Z,99197.75
2023-04-22T12:12:27.030Z,99181.91
2023-04-22T12:14:58.092Z,99191.75
2023-04-22T12:17:27.337Z,99190.00
2023-04-22T12:19:56.684Z,99191.59
2023-04-22T12:22:28.152Z,99194.09
2023-04-22T12:24:59.726Z,99184.94
2023-04-22T12:27:29.187Z,99187.28
2023-04-22T12:29:58.852Z,99190.63
2023-04-22T12:32:31.556Z,99186.81
2023-04-22T12:35:00.187Z,99189.19
2023-04-22T12:37:30.721Z,99181.81
2023-04-22T12:39:59.796Z,99190.50
2023-04-22T12:42:28.366Z,99190.19
2023-04-22T12:44:56.981Z,99186.25
2023-04-22T12:47:25.925Z,99180.38
2023-04-22T12:49:54.542Z,99193.38
2023-04-22T12:52:23.266Z,99197.66
2023-04-22T12:54:53.457Z,99187.13
2023-04-22T12:57:22.001Z,99185.47
2023-04-22T12:59:50.534Z,99191.13
2023-04-22T13:02:19.353Z,99193.78
2023-04-22T13:04:47.946Z,99189.06
2023-04-22T13:07:17.480Z,99194.09
2023-04-22T13:09:46.108Z,99197.34
2023-04-22T13:12:16.284Z,99194.66
2023-04-22T13:14:44.803Z,99195.50
2023-04-22T13:17:13.551Z,99190.31
2023-04-22T13:19:42.211Z,99191.50
2023-04-22T13:22:10.867Z,99195.47
2023-04-22T13:24:39.350Z,99193.09
2023-04-22T13:27:07.961Z,99186.31
2023-04-22T13:29:38.344Z,99191.06
2023-04-22T13:32:07.246Z,99180.75
2023-04-22T13:34:35.858Z,99186.25
2023-04-22T13:37:04.635Z,99193.63
2023-04-22T13:39:33.566Z,99207.19
2023-04-22T13:42:02.809Z,99202.16
2023-04-22T13:44:31.477Z,99214.19
2023-04-22T13:47:02.764Z,99231.41
2023-04-22T13:49:31.585Z,99226.63
2023-04-22T13:52:00.098Z,99220.88
2023-04-22T13:54:28.592Z,99224.91
2023-04-22T13:56:57.156Z,99234.91
2023-04-22T13:59:25.963Z,99231.63
2023-04-22T14:01:54.468Z,99235.38
2023-04-22T14:04:24.539Z,99227.59
2023-04-22T14:06:53.338Z,99222.53
2023-04-22T14:09:22.166Z,99223.63
2023-04-22T14:11:50.739Z,99220.25
2023-04-22T14:14:19.321Z,99218.66
2023-04-22T14:16:47.920Z,99218.81
2023-04-22T14:19:19.292Z,99220.69
2023-04-22T14:21:49.065Z,99220.81
2023-04-22T14:24:19.385Z,99216.53
2023-04-22T14:26:47.962Z,99216.63
2023-04-22T14:29:16.643Z,99224.69
2023-04-22T14:31:45.256Z,99228.31
2023-04-22T14:34:13.873Z,99230.16
2023-04-22T14:36:42.417Z,99222.25
2023-04-22T14:39:12.508Z,99228.50
2023-04-22T14:41:41.463Z,99219.72
2023-04-22T14:44:10.088Z,99224.13
2023-04-22T14:46:38.643Z,99225.97
2023-04-22T14:49:07.332Z,99221.59
2023-04-22T14:51:36.512Z,99224.31
2023-04-22T14:54:05.280Z,99220.84
2023-04-22T14:56:36.115Z,99223.53
2023-04-22T14:59:04.600Z,99229.75
2023-04-22T15:01:33.643Z,99224.53
2023-04-22T15:04:02.231Z,99219.34
2023-04-22T15:06:31.080Z,99221.19
2023-04-22T15:08:59.558Z,99226.56
2023-04-22T15:11:28.057Z,99224.78
2023-04-22T15:13:57.972Z,99228.38
2023-04-22T15:16:26.619Z,99230.22
2023-04-22T15:18:55.752Z,99233.75
2023-04-22T15:21:24.328Z,99228.44
2023-04-22T15:23:53.102Z,99222.28
2023-04-22T15:26:21.649Z,99225.88
2023-04-22T15:28:51.290Z,99217.97
2023-04-22T15:31:21.924Z,99223.34
2023-04-22T15:33:50.571Z,99225.16
2023-04-22T15:36:21.578Z,99224.31
2023-04-22T15:38:56.343Z,99234.13
2023-04-22T15:41:25.392Z,99226.25
2023-04-22T15:43:54.330Z,99226.31
2023-04-22T15:46:24.303Z,99226.38
2023-04-22T15:48:52.897Z,99223.78
2023-04-22T15:51:21.868Z,99227.41
2023-04-22T15:53:50.519Z,99227.50
2023-04-22T15:56:19.433Z,99224.97
2023-04-22T15:58:47.939Z,99222.41
2023-04-22T16:01:19.560Z,99220.72
2023-04-22T16:03:51.474Z,99224.34
2023-04-22T16:06:20.416Z,99216.47
2023-04-22T16:08:48.942Z,99220.97
2023-04-22T16:11:17.623Z,99221.91
2023-04-22T16:13:46.436Z,99227.28
2023-04-22T16:16:15.117Z,99231.78
2023-04-22T16:18:44.461Z,99234.47
2023-04-22T16:21:14.435Z,99229.25
2023-04-22T16:23:43.407Z,99230.22
2023-04-22T16:26:12.012Z,99250.59
2023-04-22T16:28:40.735Z,99236.56
2023-04-22T16:31:12.342Z,99241.94
2023-04-22T16:33:40.917Z,99244.63
2023-04-22T16:36:10.290Z,99259.69
2023-04-22T16:38:40.171Z,99256.25
2023-04-22T16:41:11.508Z,99252.81
2023-04-22T16:43:41.383Z,99259.94
2023-04-22T16:46:09.906Z,99256.47
2023-04-22T16:48:38.514Z,99268.03
2023-04-22T16:51:07.185Z,99263.72
2023-04-22T16:53:36.621Z,99262.91
2023-04-22T16:56:06.902Z,99258.59
2023-04-22T16:58:35.450Z,99264.84
2023-04-22T17:01:04.181Z,99269.28
2023-04-22T17:03:33.313Z,99264.03
2023-04-22T17:06:01.988Z,99271.09
2023-04-22T17:08:30.667Z,99272.00
2023-04-22T17:10:59.502Z,99265.00
2023-04-22T17:13:29.410Z,99261.50
2023-04-22T17:15:58.004Z,99262.41
2023-04-22T17:18:26.764Z,99266.00
2023-04-22T17:20:55.924Z,99265.19
2023-04-22T17:23:24.377Z,99265.19
2023-04-22T17:25:52.857Z,99271.38
2023-04-22T17:28:21.476Z,99276.72
2023-04-22T17:30:51.424Z,99273.22
2023-04-22T17:33:19.967Z,99279.41
2023-04-22T17:35:48.508Z,99271.50
2023-04-22T17:38:17.056Z,99272.41
2023-04-22T17:40:45.861Z,99274.19
2023-04-22T17:43:14.466Z,99272.47
2023-04-22T17:45:42.957Z,99269.88
2023-04-22T17:48:12.963Z,99271.69
2023-04-22T17:50:41.473Z,99272.59
2023-04-22T17:53:09.956Z,99267.34
2023-04-22T17:55:38.927Z,99273.53
2023-04-22T17:58:07.494Z,99272.66
2023-04-22T18:00:36.951Z,99275.34
2023-04-22T18:03:06.594Z,99279.75
2023-04-22T18:05:42.971Z,99273.59
2023-04-22T18:08:11.826Z,99271.00
2023-04-22T18:10:40.390Z,99273.63
2023-04-22T18:13:08.881Z,99271.91
2023-04-22T18:15:37.376Z,99276.31
2023-04-22T18:18:05.981Z,99279.00
2023-04-22T18:20:36.265Z,99283.41
2023-04-22T18:23:05.656Z,99279.91
2023-04-22T18:25:35.218Z,99282.53
2023-04-22T18:28:03.833Z,99279.06
2023-04-22T18:30:32.920Z,99286.97
2023-04-22T18:33:01.626Z,99287.88
2023-04-22T18:35:30.658Z,99287.00
2023-04-22T18:38:00.818Z,99282.63
2023-04-22T18:40:29.760Z,99281.78
2023-04-22T18:42:58.814Z,99288.84
2023-04-22T18:45:27.591Z,99279.19
2023-04-22T18:47:56.803Z,99288.91
2023-04-22T18:50:25.662Z,99285.41
2023-04-22T18:52:54.556Z,99294.16
2023-04-22T18:55:24.990Z,99296.81
2023-04-22T18:57:53.767Z,99296.84
2023-04-22T19:00:22.694Z,99304.75
2023-04-22T19:02:51.575Z,99306.56
2023-04-22T19:05:20.553Z,99301.28
2023-04-22T19:07:49.637Z,99303.91
2023-04-22T19:10:18.408Z,99305.69
2023-04-22T19:12:48.377Z,99303.06
2023-04-22T19:15:20.072Z,99300.41
2023-04-22T19:17:49.073Z,99303.97
2023-04-22T19:20:18.119Z,99304.81
2023-04-22T19:22:46.814Z,99307.50
2023-04-22T19:25:16.341Z,99311.91
2023-04-22T19:27:44.780Z,99317.19
2023-04-22T19:30:16.542Z,99339.19
2023-04-22T19:32:45.417Z,99340.09
2023-04-22T19:35:16.363Z,99346.28
2023-04-22T19:37:45.629Z,99339.28
2023-04-22T19:40:17.331Z,99347.25
2023-04-22T19:42:47.403Z,99350.78
2023-04-22T19:45:17.634Z,99346.41
2023-04-22T19:47:46.775Z,99355.22
2023-04-22T19:50:16.747Z,99355.25
2023-04-22T19:52:47.614Z,99350.88
2023-04-22T19:55:17.536Z,99350.00
2023-04-22T19:57:46.860Z,99359.66
2023-04-22T20:00:18.952Z,99354.41
2023-04-22T20:02:48.344Z,99359.66
2023-04-22T20:05:18.898Z,99357.91
2023-04-22T20:07:48.518Z,99354.38
2023-04-22T20:10:18.259Z,99364.06
2023-04-22T20:12:47.177Z,99365.78
2023-04-22T20:15:18.053Z,99365.78
2023-04-22T20:17:47.102Z,99373.69
2023-04-22T20:20:17.699Z,99369.31
2023-04-22T20:22:47.423Z,99368.44
2023-04-22T20:25:18.257Z,99369.31
2023-04-22T20:27:47.380Z,99370.16
2023-04-22T20:30:18.940Z,99363.16
2023-04-22T20:32:48.035Z,99369.28
2023-04-22T20:35:17.362Z,99366.66
2023-04-22T20:37:47.129Z,99362.28
2023-04-22T20:40:16.812Z,99365.78
2023-04-22T20:42:46.735Z,99364.03
2023-04-22T20:45:17.888Z,99369.28
2023-04-22T20:47:48.616Z,99381.56
2023-04-22T20:50:17.393Z,99390.34
2023-04-22T20:52:45.887Z,99392.97
2023-04-22T20:55:14.571Z,99398.22
2023-04-22T20:57:43.179Z,99399.97
2023-04-22T21:00:12.639Z,99395.59
2023-04-22T21:02:43.247Z,99399.06
2023-04-22T21:05:13.770Z,99404.31
2023-04-22T21:07:44.525Z,99404.28
2023-04-22T21:10:14.023Z,99407.75
2023-04-22T21:12:43.408Z,99414.78
2023-04-22T21:15:18.745Z,99412.97
2023-04-22T21:18:03.330Z,99407.69
2023-04-22T21:20:40.743Z,99419.88
2023-04-22T21:23:11.063Z,99412.81
2023-04-22T21:25:41.598Z,99413.66
2023-04-22T21:28:12.611Z,99412.78
2023-04-22T21:30:42.546Z,99408.41
2023-04-22T21:33:12.000Z,99416.28
2023-04-22T21:35:45.419Z,99407.47
2023-04-22T21:38:16.719Z,99416.19
2023-04-22T21:40:49.049Z,99411.78
2023-04-22T21:43:29.604Z,99422.28
2023-04-22T21:45:58.535Z,99419.59
2023-04-22T21:48:27.696Z,99417.84
2023-04-22T21:50:58.663Z,99422.19
2023-04-22T21:53:28.452Z,99421.28
2023-04-22T21:55:58.099Z,99425.63
2023-04-22T21:58:29.496Z,99422.13
2023-04-22T22:00:58.629Z,99428.22
2023-04-22T22:03:28.136Z,99419.47
2023-04-22T22:05:59.922Z,99429.06
2023-04-22T22:08:28.908Z,99424.69
2023-04-22T22:10:57.913Z,99418.53
2023-04-22T22:13:27.022Z,99423.75
2023-04-22T22:15:57.713Z,99421.97
2023-04-22T22:18:27.512Z,99425.41
2023-04-22T22:20:56.084Z,99428.91
2023-04-22T22:23:26.164Z,99422.78
2023-04-22T22:25:54.721Z,99433.28
2023-04-22T22:28:23.286Z,99428.00
2023-04-22T22:30:51.816Z,99437.59
2023-04-22T22:33:20.360Z,99434.94
2023-04-22T22:35:48.998Z,99444.56
2023-04-22T22:38:17.530Z,99440.16
2023-04-22T22:40:47.444Z,99447.16
2023-04-22T22:43:16.406Z,99446.25
2023-04-22T22:45:45.633Z,99445.34
2023-04-22T22:48:15.939Z,99441.84
2023-04-22T22:50:46.765Z,99443.59
2023-04-22T22:53:16.171Z,99452.31
2023-04-22T22:55:45.510Z,99459.28
2023-04-22T22:58:16.772Z,99451.38
2023-04-22T23:00:45.675Z,99455.72
2023-04-22T23:03:14.292Z,99459.19
2023-04-22T23:05:42.975Z,99450.47
2023-04-22T23:08:12.417Z,99455.69
2023-04-22T23:10:40.884Z,99453.94
2023-04-22T23:13:09.346Z,99453.06
2023-04-22T23:15:39.335Z,99459.16
2023-04-22T23:18:08.979Z,99449.53
2023-04-22T23:20:38.304Z,99448.63
2023-04-22T23:23:07.327Z,99448.59
2023-04-22T23:25:36.347Z,99453.84
2023-04-22T23:28:05.595Z,99442.47
2023-04-22T23:30:34.898Z,99443.28
2023-04-22T23:33:05.940Z,99449.34
2023-04-22T23:35:36.748Z,99435.31
2023-04-22T23:38:05.555Z,99437.94
2023-04-22T23:40:34.057Z,99433.56
2023-04-22T23:43:02.621Z,99434.41
2023-04-22T23:45:31.132Z,99436.16
2023-04-22T23:47:59.909Z,99435.25
2023-04-22T23:50:30.656Z,99427.41
2023-04-22T23:52:59.469Z,99430.91
2023-04-22T23:55:28.836Z,99418.66
2023-04-22T23:57:57.940Z,99425.66
